createdAt,value
2018-10-11T00:02:07.142Z,92.80
2018-10-11T00:04:35.806Z,92.70
2018-10-11T00:07:04.390Z,92.60
2018-10-11T00:09:32.941Z,92.80
2018-10-11T00:12:01.630Z,92.40
2018-10-11T00:14:30.394Z,92.50
2018-10-11T00:16:59.055Z,92.40
2018-10-11T00:19:27.592Z,92.50
2018-10-11T00:21:56.078Z,92.40
2018-10-11T00:24:24.664Z,92.40
2018-10-11T00:26:53.298Z,92.30
2018-10-11T00:29:21.834Z,92.40
2018-10-11T00:31:50.410Z,92.20
2018-10-11T00:34:18.998Z,92.40
2018-10-11T00:36:47.453Z,92.40
2018-10-11T00:39:15.865Z,92.30
2018-10-11T00:41:44.461Z,92.30
2018-10-11T00:44:15.630Z,92.20
2018-10-11T00:46:45.578Z,92.30
2018-10-11T00:49:14.116Z,92.20
2018-10-11T00:51:42.670Z,92.30
2018-10-11T00:54:11.206Z,92.30
2018-10-11T00:56:40.250Z,92.30
2018-10-11T00:59:09.799Z,92.30
2018-10-11T01:01:38.537Z,92.30
2018-10-11T01:04:07.091Z,92.40
2018-10-11T01:06:35.599Z,92.20
2018-10-11T01:09:04.813Z,92.40
2018-10-11T01:11:33.354Z,92.40
2018-10-11T01:14:01.794Z,92.30
2018-10-11T01:16:30.219Z,92.40
2018-10-11T01:18:58.736Z,92.30
2018-10-11T01:21:27.300Z,92.50
2018-10-11T01:23:55.801Z,92.60
2018-10-11T01:26:24.458Z,92.70
2018-10-11T01:28:53.025Z,92.60
2018-10-11T01:31:22.690Z,92.60
2018-10-11T01:33:51.766Z,92.60
2018-10-11T01:36:20.484Z,92.50
2018-10-11T01:38:51.143Z,92.50
2018-10-11T01:41:19.644Z,92.50
2018-10-11T01:43:48.502Z,92.50
2018-10-11T01:46:16.886Z,92.50
2018-10-11T01:48:45.378Z,92.50
2018-10-11T01:51:13.880Z,92.50
2018-10-11T01:53:42.390Z,92.50
2018-10-11T01:56:10.875Z,92.40
2018-10-11T01:58:39.370Z,92.60
2018-10-11T02:01:07.868Z,92.70
2018-10-11T02:03:36.648Z,92.70
2018-10-11T02:06:05.217Z,93.00
2018-10-11T02:08:33.721Z,92.90
2018-10-11T02:11:02.234Z,93.20
2018-10-11T02:13:30.735Z,93.20
2018-10-11T02:15:59.248Z,93.40
2018-10-11T02:18:27.632Z,93.50
2018-10-11T02:20:56.282Z,93.70
2018-10-11T02:23:24.856Z,93.70
2018-10-11T02:25:53.288Z,93.80
2018-10-11T02:28:21.671Z,93.80
2018-10-11T02:30:50.137Z,93.90
2018-10-11T02:33:18.750Z,93.90
2018-10-11T02:35:47.275Z,94.00
2018-10-11T02:38:15.804Z,93.90
2018-10-11T02:40:44.405Z,94.00
2018-10-11T02:43:13.021Z,94.00
2018-10-11T02:45:41.490Z,93.90
2018-10-11T02:48:09.984Z,93.90
2018-10-11T02:50:38.405Z,93.70
2018-10-11T02:53:06.888Z,93.80
2018-10-11T02:55:35.515Z,93.70
2018-10-11T02:58:15.308Z,93.60
2018-10-11T03:00:43.821Z,93.70
2018-10-11T03:03:14.267Z,93.70
2018-10-11T03:05:44.424Z,93.70
2018-10-11T03:08:16.409Z,93.70
2018-10-11T03:10:44.993Z,93.70
2018-10-11T03:13:14.224Z,93.70
2018-10-11T03:15:43.735Z,93.70
2018-10-11T03:18:13.095Z,93.60
2018-10-11T03:20:42.650Z,93.70
2018-10-11T03:23:11.948Z,93.80
2018-10-11T03:25:41.177Z,93.90
2018-10-11T03:28:09.961Z,94.00
2018-10-11T03:30:38.506Z,93.90
2018-10-11T03:33:07.222Z,94.00
2018-10-11T03:35:35.750Z,94.00
2018-10-11T03:38:04.228Z,94.00
2018-10-11T03:40:32.709Z,94.10
2018-10-11T03:43:01.176Z,94.20
2018-10-11T03:45:30.278Z,94.20
2018-10-11T03:47:58.967Z,94.40
2018-10-11T03:50:27.954Z,94.30
2018-10-11T03:52:57.269Z,94.50
2018-10-11T03:55:25.805Z,94.40
2018-10-11T03:57:54.295Z,94.40
2018-10-11T04:00:22.823Z,94.50
2018-10-11T04:02:51.390Z,94.60
2018-10-11T04:05:19.955Z,94.60
2018-10-11T04:07:48.479Z,94.60
2018-10-11T04:10:16.911Z,94.70
2018-10-11T04:12:45.397Z,94.70
2018-10-11T04:15:13.869Z,94.80
2018-10-11T04:17:42.296Z,94.90
2018-10-11T04:20:10.953Z,95.00
2018-10-11T04:22:39.381Z,95.00
2018-10-11T04:25:07.882Z,95.10
2018-10-11T04:27:39.757Z,95.10
2018-10-11T04:30:08.375Z,95.10
2018-10-11T04:32:36.845Z,95.10
2018-10-11T04:38:02.488Z,95.10
2018-10-11T04:40:30.957Z,95.10
2018-10-11T04:42:59.525Z,95.30
2018-10-11T04:48:15.670Z,95.10
2018-10-11T04:50:49.437Z,95.00
2018-10-11T04:53:17.864Z,95.00
2018-10-11T04:55:46.412Z,95.00
2018-10-11T04:58:20.419Z,95.20
2018-10-11T05:00:49.284Z,95.30
2018-10-11T05:03:19.733Z,95.40
2018-10-11T05:08:57.456Z,95.40
2018-10-11T05:11:25.977Z,95.60
2018-10-11T05:13:55.561Z,95.80
2018-10-11T05:16:31.830Z,95.70
2018-10-11T05:19:02.773Z,95.50
2018-10-11T05:21:31.303Z,95.40
2018-10-11T05:23:59.709Z,95.40
2018-10-11T05:26:28.220Z,95.40
2018-10-11T05:28:56.797Z,95.30
2018-10-11T05:34:20.095Z,95.20
2018-10-11T05:36:48.588Z,95.00
2018-10-11T05:39:17.166Z,95.00
2018-10-11T05:41:49.356Z,95.00
2018-10-11T05:44:20.143Z,95.00
2018-10-11T05:46:48.615Z,95.20
2018-10-11T05:49:17.088Z,94.90
2018-10-11T05:51:45.605Z,95.00
2018-10-11T05:54:21.714Z,95.20
2018-10-11T05:56:50.584Z,95.20
2018-10-11T05:59:25.830Z,95.00
2018-10-11T06:01:54.522Z,95.10
2018-10-11T06:04:23.143Z,95.00
2018-10-11T06:06:51.531Z,94.90
2018-10-11T06:09:20.121Z,94.90
2018-10-11T06:11:52.635Z,95.10
2018-10-11T06:14:21.358Z,95.00
2018-10-11T06:16:50.185Z,95.10
2018-10-11T06:19:18.803Z,95.20
2018-10-11T06:21:47.803Z,95.20
2018-10-11T06:24:16.534Z,95.10
2018-10-11T06:26:45.129Z,95.00
2018-10-11T06:29:13.685Z,95.10
2018-10-11T06:31:42.171Z,95.10
2018-10-11T06:34:10.758Z,95.00
2018-10-11T06:36:39.554Z,95.00
2018-10-11T06:39:08.944Z,94.80
2018-10-11T06:41:37.737Z,94.80
2018-10-11T06:44:06.756Z,95.00
2018-10-11T06:46:35.386Z,95.10
2018-10-11T06:49:03.897Z,95.10
2018-10-11T06:51:32.593Z,94.90
2018-10-11T06:54:01.001Z,94.80
2018-10-11T06:56:29.517Z,95.00
2018-10-11T06:58:57.944Z,95.00
2018-10-11T07:01:26.459Z,95.00
2018-10-11T07:03:54.952Z,94.90
2018-10-11T07:06:23.492Z,94.90
2018-10-11T07:08:51.997Z,94.80
2018-10-11T07:11:20.451Z,94.70
2018-10-11T07:13:49.048Z,94.70
2018-10-11T07:16:17.444Z,94.60
2018-10-11T07:18:45.856Z,95.00
2018-10-11T07:21:15.321Z,94.80
2018-10-11T07:23:43.768Z,94.70
2018-10-11T07:26:12.120Z,94.80
2018-10-11T07:28:40.493Z,94.90
2018-10-11T07:31:08.916Z,95.00
2018-10-11T07:33:37.319Z,95.00
2018-10-11T07:36:05.736Z,95.10
2018-10-11T07:38:34.217Z,95.30
2018-10-11T07:41:02.801Z,95.30
2018-10-11T07:43:31.169Z,95.40
2018-10-11T07:45:59.645Z,95.40
2018-10-11T07:48:28.124Z,95.40
2018-10-11T07:50:56.587Z,95.30
2018-10-11T07:53:25.107Z,95.40
2018-10-11T07:55:53.568Z,95.20
2018-10-11T07:58:21.969Z,95.20
2018-10-11T08:00:50.447Z,95.10
2018-10-11T08:03:19.439Z,95.00
2018-10-11T08:05:47.913Z,95.10
2018-10-11T08:08:16.452Z,94.90
2018-10-11T08:10:44.962Z,94.90
2018-10-11T08:13:13.378Z,94.70
2018-10-11T08:15:41.879Z,94.60
2018-10-11T08:18:10.431Z,94.50
2018-10-11T08:20:39.081Z,94.40
2018-10-11T08:23:07.493Z,94.70
2018-10-11T08:25:36.244Z,94.20
2018-10-11T08:28:04.533Z,94.40
2018-10-11T08:30:33.189Z,94.10
2018-10-11T08:33:01.709Z,94.20
2018-10-11T08:35:30.204Z,94.00
2018-10-11T08:37:59.000Z,93.60
2018-10-11T08:40:27.408Z,93.60
2018-10-11T08:42:55.863Z,93.60
2018-10-11T08:45:24.321Z,93.50
2018-10-11T08:47:52.837Z,93.80
2018-10-11T08:50:21.475Z,93.60
2018-10-11T08:52:49.854Z,93.70
2018-10-11T08:55:18.305Z,93.60
2018-10-11T08:57:46.749Z,93.60
2018-10-11T09:00:15.280Z,93.20
2018-10-11T09:02:43.795Z,92.80
2018-10-11T09:05:12.369Z,92.70
2018-10-11T09:07:40.821Z,93.00
2018-10-11T09:10:09.307Z,92.90
2018-10-11T09:12:41.545Z,93.20
2018-10-11T09:15:10.549Z,92.50
2018-10-11T09:17:39.115Z,91.70
2018-10-11T09:20:07.616Z,91.90
2018-10-11T09:22:36.321Z,91.90
2018-10-11T09:25:05.888Z,91.60
2018-10-11T09:27:34.423Z,91.40
2018-10-11T09:30:03.118Z,91.50
2018-10-11T09:32:31.626Z,91.00
2018-10-11T09:35:02.505Z,91.10
2018-10-11T09:37:31.210Z,91.10
2018-10-11T09:39:59.672Z,90.40
2018-10-11T09:42:30.634Z,90.40
2018-10-11T09:45:03.653Z,88.90
2018-10-11T09:47:32.089Z,88.90
2018-10-11T09:50:18.228Z,89.10
2018-10-11T09:52:48.331Z,89.10
2018-10-11T09:55:16.897Z,88.30
2018-10-11T09:57:45.337Z,87.20
2018-10-11T10:00:19.070Z,86.50
2018-10-11T10:02:51.485Z,86.80
2018-10-11T10:05:20.053Z,85.70
2018-10-11T10:07:48.617Z,85.70
2018-10-11T10:10:22.550Z,85.80
2018-10-11T10:12:53.144Z,85.30
2018-10-11T10:15:25.731Z,84.90
2018-10-11T10:17:54.221Z,84.50
2018-10-11T10:20:22.914Z,83.40
2018-10-11T10:22:51.700Z,83.30
2018-10-11T10:25:20.640Z,82.00
2018-10-11T10:27:49.881Z,82.40
2018-10-11T10:33:17.634Z,80.80
2018-10-11T10:35:46.860Z,79.50
2018-10-11T10:38:15.277Z,79.30
2018-10-11T10:40:43.762Z,79.40
2018-10-11T10:43:13.293Z,80.60
2018-10-11T10:45:42.449Z,78.50
2018-10-11T10:48:14.501Z,78.40
2018-10-11T10:50:43.072Z,77.40
2018-10-11T10:53:11.576Z,77.30
2018-10-11T10:55:40.080Z,77.00
2018-10-11T10:58:08.635Z,77.70
2018-10-11T11:00:37.208Z,76.60
2018-10-11T11:03:05.661Z,76.40
2018-10-11T11:05:34.082Z,75.40
2018-10-11T11:08:02.772Z,75.30
2018-10-11T11:10:31.194Z,75.20
2018-10-11T11:12:59.747Z,74.70
2018-10-11T11:15:28.193Z,74.40
2018-10-11T11:17:57.279Z,74.10
2018-10-11T11:20:26.002Z,73.80
2018-10-11T11:22:54.489Z,72.70
2018-10-11T11:25:22.926Z,72.70
2018-10-11T11:27:51.368Z,71.80
2018-10-11T11:30:22.458Z,69.70
2018-10-11T11:32:51.472Z,69.40
2018-10-11T11:35:19.949Z,69.70
2018-10-11T11:37:48.396Z,68.10
2018-10-11T11:40:17.016Z,68.10
2018-10-11T11:42:45.452Z,68.40
2018-10-11T11:45:13.952Z,66.90
2018-10-11T11:47:42.563Z,66.50
2018-10-11T11:50:24.289Z,67.00
2018-10-11T11:52:52.689Z,66.80
2018-10-11T11:55:25.099Z,65.90
2018-10-11T11:57:54.356Z,66.10
2018-10-11T12:00:26.384Z,65.70
2018-10-11T12:02:55.778Z,65.60
2018-10-11T12:05:24.285Z,65.20
2018-10-11T12:07:53.157Z,65.60
2018-10-11T12:10:22.927Z,64.40
2018-10-11T12:12:55.042Z,63.90
2018-10-11T12:15:24.976Z,63.50
2018-10-11T12:17:54.939Z,63.60
2018-10-11T12:20:31.912Z,63.40
2018-10-11T12:23:01.464Z,62.90
2018-10-11T12:25:30.377Z,63.40
2018-10-11T12:28:00.034Z,63.40
2018-10-11T12:30:29.939Z,64.10
2018-10-11T12:32:58.473Z,63.20
2018-10-11T12:35:27.585Z,62.50
2018-10-11T12:37:56.120Z,63.60
2018-10-11T12:40:24.762Z,63.40
2018-10-11T12:42:54.177Z,63.50
2018-10-11T12:45:22.873Z,64.00
2018-10-11T12:47:54.567Z,63.50
2018-10-11T12:50:23.117Z,64.20
2018-10-11T12:52:51.717Z,63.70
2018-10-11T12:55:20.262Z,63.80
2018-10-11T12:57:48.858Z,64.20
2018-10-11T13:00:18.053Z,64.30
2018-10-11T13:02:47.128Z,64.50
2018-10-11T13:05:15.749Z,62.90
2018-10-11T13:07:45.458Z,63.70
2018-10-11T13:10:13.983Z,63.80
2018-10-11T13:12:42.571Z,63.10
2018-10-11T13:15:11.277Z,63.60
2018-10-11T13:17:42.817Z,64.20
2018-10-11T13:20:09.392Z,63.70
2018-10-11T13:22:39.148Z,63.80
2018-10-11T13:25:07.671Z,63.70
2018-10-11T13:27:36.162Z,63.20
2018-10-11T13:30:04.809Z,63.50
2018-10-11T13:32:33.381Z,63.90
2018-10-11T13:35:01.827Z,64.80
2018-10-11T13:37:32.430Z,64.40
2018-10-11T13:40:00.890Z,65.10
2018-10-11T13:42:29.709Z,64.80
2018-10-11T13:44:59.282Z,65.10
2018-10-11T13:47:29.010Z,65.50
2018-10-11T13:49:57.484Z,65.00
2018-10-11T13:52:26.036Z,65.40
2018-10-11T13:54:54.520Z,65.60
2018-10-11T13:57:26.847Z,66.40
2018-10-11T13:59:52.254Z,66.40
2018-10-11T14:02:20.725Z,66.50
2018-10-11T14:04:49.375Z,66.90
2018-10-11T14:07:17.825Z,67.20
2018-10-11T14:09:46.362Z,67.20
2018-10-11T14:12:14.769Z,68.10
2018-10-11T14:14:43.299Z,68.40
2018-10-11T14:17:11.797Z,69.30
2018-10-11T14:19:40.211Z,69.30
2018-10-11T14:22:08.726Z,69.90
2018-10-11T14:24:37.150Z,69.70
2018-10-11T14:27:05.709Z,69.40
2018-10-11T14:29:34.820Z,70.50
2018-10-11T14:32:03.312Z,69.60
2018-10-11T14:34:31.862Z,70.30
2018-10-11T14:37:00.371Z,69.20
2018-10-11T14:39:28.779Z,69.70
2018-10-11T14:42:00.064Z,70.10
2018-10-11T14:44:28.561Z,70.60
2018-10-11T14:46:56.993Z,70.00
2018-10-11T14:49:26.282Z,70.20
2018-10-11T14:51:55.081Z,70.70
2018-10-11T14:54:23.516Z,70.60
2018-10-11T14:56:51.959Z,70.50
2018-10-11T14:59:20.589Z,70.80
2018-10-11T15:01:49.081Z,70.60
2018-10-11T15:04:17.673Z,70.70
2018-10-11T15:06:48.251Z,71.30
2018-10-11T15:09:16.946Z,71.20
2018-10-11T15:11:45.448Z,71.80
2018-10-11T15:14:14.232Z,72.00
2018-10-11T15:16:42.703Z,72.30
2018-10-11T15:19:11.153Z,72.60
2018-10-11T15:21:43.200Z,72.80
2018-10-11T15:24:11.845Z,72.50
2018-10-11T15:26:40.330Z,72.60
2018-10-11T15:29:09.039Z,73.30
2018-10-11T15:31:37.394Z,73.30
2018-10-11T15:34:06.037Z,72.90
2018-10-11T15:36:34.545Z,73.40
2018-10-11T15:39:03.142Z,73.90
2018-10-11T15:41:31.525Z,73.70
2018-10-11T15:43:59.995Z,73.70
2018-10-11T15:46:28.456Z,73.60
2018-10-11T15:48:56.992Z,73.20
2018-10-11T15:51:25.693Z,74.70
2018-10-11T15:53:54.409Z,75.00
2018-10-11T15:56:22.889Z,74.10
2018-10-11T15:58:51.432Z,74.50
2018-10-11T16:01:19.925Z,74.90
2018-10-11T16:03:48.455Z,74.90
2018-10-11T16:06:16.954Z,75.30
2018-10-11T16:08:45.467Z,75.90
2018-10-11T16:11:14.063Z,76.20
2018-10-11T16:13:42.519Z,75.80
2018-10-11T16:16:11.110Z,75.90
2018-10-11T16:18:39.745Z,76.50
2018-10-11T16:21:08.663Z,76.40
2018-10-11T16:23:37.682Z,75.80
2018-10-11T16:26:06.114Z,76.20
2018-10-11T16:28:34.666Z,76.60
2018-10-11T16:31:03.240Z,77.10
2018-10-11T16:33:31.892Z,77.80
2018-10-11T16:36:00.413Z,78.70
2018-10-11T16:38:29.408Z,79.10
2018-10-11T16:40:58.405Z,79.20
2018-10-11T16:43:26.901Z,79.50
2018-10-11T16:45:55.578Z,79.60
2018-10-11T16:48:24.062Z,80.30
2018-10-11T16:50:53.162Z,80.50
2018-10-11T16:53:22.155Z,81.30
2018-10-11T16:55:51.496Z,81.60
2018-10-11T16:58:20.190Z,82.00
2018-10-11T17:00:49.211Z,82.50
2018-10-11T17:03:17.613Z,82.70
2018-10-11T17:05:47.009Z,83.00
2018-10-11T17:08:15.488Z,83.20
2018-10-11T17:10:44.182Z,83.40
2018-10-11T17:13:12.820Z,83.70
2018-10-11T17:15:41.357Z,84.20
2018-10-11T17:18:09.861Z,84.50
2018-10-11T17:20:38.418Z,85.00
2018-10-11T17:23:06.923Z,85.10
2018-10-11T17:25:35.430Z,85.10
2018-10-11T17:28:03.907Z,85.90
2018-10-11T17:30:32.375Z,85.30
2018-10-11T17:33:00.804Z,85.50
2018-10-11T17:35:29.337Z,85.70
2018-10-11T17:37:57.826Z,85.90
2018-10-11T17:40:26.405Z,86.00
2018-10-11T17:42:54.960Z,86.40
2018-10-11T17:45:23.504Z,86.40
2018-10-11T17:47:53.386Z,86.70
2018-10-11T17:50:21.959Z,87.00
2018-10-11T17:52:50.499Z,87.40
2018-10-11T17:55:19.100Z,87.60
2018-10-11T17:57:47.629Z,87.70
2018-10-11T18:00:16.290Z,87.90
2018-10-11T18:02:44.906Z,88.00
2018-10-11T18:07:51.901Z,88.10
2018-10-11T18:10:20.607Z,88.30
2018-10-11T18:12:49.097Z,88.00
2018-10-11T18:15:17.735Z,88.30
2018-10-11T18:17:46.312Z,88.80
2018-10-11T18:20:14.874Z,89.00
2018-10-11T18:22:44.056Z,89.20
2018-10-11T18:25:12.713Z,89.30
2018-10-11T18:27:41.313Z,89.30
2018-10-11T18:30:10.993Z,89.60
2018-10-11T18:32:39.612Z,89.40
2018-10-11T18:35:08.524Z,88.90
2018-10-11T18:37:37.194Z,89.00
2018-10-11T18:40:05.803Z,89.30
2018-10-11T18:42:34.303Z,88.30
2018-10-11T18:45:02.866Z,88.70
2018-10-11T18:47:32.027Z,88.20
2018-10-11T18:50:00.447Z,87.70
2018-10-11T18:52:29.020Z,87.60
2018-10-11T18:54:57.518Z,87.30
2018-10-11T18:57:26.124Z,87.40
2018-10-11T18:59:54.812Z,87.20
2018-10-11T19:02:23.262Z,87.50
2018-10-11T19:04:51.729Z,87.60
2018-10-11T19:07:20.311Z,87.60
2018-10-11T19:09:48.683Z,87.80
2018-10-11T19:12:17.534Z,87.80
2018-10-11T19:14:46.265Z,87.60
2018-10-11T19:17:14.908Z,87.30
2018-10-11T19:19:43.418Z,86.70
2018-10-11T19:22:12.340Z,86.60
2018-10-11T19:24:40.827Z,86.70
2018-10-11T19:27:09.366Z,86.70
2018-10-11T19:29:37.891Z,86.50
2018-10-11T19:32:06.406Z,86.50
2018-10-11T19:34:34.894Z,86.60
2018-10-11T19:37:03.649Z,86.90
2018-10-11T19:39:32.384Z,87.10
2018-10-11T19:42:00.832Z,87.20
2018-10-11T19:44:29.270Z,87.00
2018-10-11T19:46:57.742Z,86.90
2018-10-11T19:49:29.414Z,86.80
2018-10-11T19:51:57.873Z,86.70
2018-10-11T19:54:26.270Z,86.50
2018-10-11T19:56:54.950Z,86.50
2018-10-11T19:59:23.415Z,86.40
2018-10-11T20:01:51.992Z,86.70
2018-10-11T20:04:20.499Z,86.40
2018-10-11T20:06:48.987Z,86.40
2018-10-11T20:09:17.373Z,86.60
2018-10-11T20:11:45.936Z,86.50
2018-10-11T20:14:20.269Z,86.60
2018-10-11T20:16:48.836Z,86.60
2018-10-11T20:19:17.277Z,86.90
2018-10-11T20:21:46.017Z,86.90
2018-10-11T20:24:14.601Z,86.90
2018-10-11T20:26:48.880Z,87.30
2018-10-11T20:29:17.501Z,87.60
2018-10-11T20:31:45.905Z,87.90
2018-10-11T20:34:14.415Z,88.40
2018-10-11T20:36:42.954Z,88.90
2018-10-11T20:39:11.385Z,89.20
2018-10-11T20:41:40.090Z,89.70
2018-10-11T20:44:08.698Z,89.90
2018-10-11T20:46:37.181Z,90.10
2018-10-11T20:49:05.750Z,90.20
2018-10-11T20:51:34.415Z,90.30
2018-10-11T20:54:02.818Z,90.40
2018-10-11T20:56:31.298Z,90.40
2018-10-11T20:58:59.736Z,90.50
2018-10-11T21:01:28.218Z,90.50
2018-10-11T21:03:56.610Z,90.70
2018-10-11T21:06:25.185Z,90.80
2018-10-11T21:08:53.821Z,90.80
2018-10-11T21:11:22.442Z,90.90
2018-10-11T21:13:51.062Z,90.90
2018-10-11T21:16:19.566Z,90.90
2018-10-11T21:18:48.198Z,90.80
2018-10-11T21:21:16.697Z,90.60
2018-10-11T21:23:45.209Z,90.50
2018-10-11T21:26:13.744Z,90.50
2018-10-11T21:28:42.159Z,90.50
2018-10-11T21:31:10.649Z,90.50
2018-10-11T21:33:39.080Z,90.40
2018-10-11T21:36:07.603Z,90.50
2018-10-11T21:38:36.304Z,90.30
2018-10-11T21:41:04.769Z,90.30
2018-10-11T21:43:33.159Z,90.40
2018-10-11T21:46:01.641Z,90.20
2018-10-11T21:48:30.093Z,90.30
2018-10-11T21:50:58.572Z,90.40
2018-10-11T21:53:27.257Z,90.10
2018-10-11T21:55:55.758Z,90.30
2018-10-11T21:58:24.444Z,90.30
2018-10-11T22:00:58.049Z,90.30
2018-10-11T22:03:26.659Z,90.30
2018-10-11T22:05:55.228Z,90.30
2018-10-11T22:08:23.826Z,90.30
2018-10-11T22:10:52.206Z,90.40
2018-10-11T22:13:20.606Z,90.20
2018-10-11T22:15:49.027Z,89.80
2018-10-11T22:18:17.501Z,89.80
2018-10-11T22:20:45.994Z,90.10
2018-10-11T22:23:14.460Z,89.90
2018-10-11T22:25:43.051Z,89.90
2018-10-11T22:28:11.453Z,90.00
2018-10-11T22:30:40.092Z,90.10
2018-10-11T22:33:08.650Z,90.30
2018-10-11T22:35:37.145Z,90.40
2018-10-11T22:38:05.621Z,90.40
2018-10-11T22:40:34.361Z,90.40
2018-10-11T22:43:02.781Z,90.30
2018-10-11T22:45:31.325Z,90.30
2018-10-11T22:47:59.809Z,90.40
2018-10-11T22:50:28.291Z,90.40
2018-10-11T22:52:57.293Z,90.60
2018-10-11T22:55:26.838Z,90.60
2018-10-11T22:57:55.793Z,90.70
2018-10-11T23:00:24.385Z,90.80
2018-10-11T23:02:53.051Z,90.90
2018-10-11T23:05:21.607Z,90.90
2018-10-11T23:07:50.302Z,91.00
2018-10-11T23:10:18.887Z,91.10
2018-10-11T23:12:47.448Z,91.10
2018-10-11T23:15:16.109Z,91.10
2018-10-11T23:17:44.432Z,91.10
2018-10-11T23:20:13.033Z,91.20
2018-10-11T23:22:42.142Z,91.20
2018-10-11T23:25:11.520Z,91.20
2018-10-11T23:27:40.682Z,91.30
2018-10-11T23:30:10.088Z,91.30
2018-10-11T23:32:39.101Z,91.40
2018-10-11T23:35:07.852Z,91.40
2018-10-11T23:37:36.834Z,91.30
2018-10-11T23:40:05.419Z,91.30
2018-10-11T23:42:33.973Z,91.30
2018-10-11T23:45:02.542Z,91.50
2018-10-11T23:47:31.006Z,91.40
2018-10-11T23:49:59.434Z,91.40
2018-10-11T23:52:28.212Z,91.50
2018-10-11T23:54:56.811Z,91.50
2018-10-11T23:57:25.291Z,91.50
2018-10-11T23:59:53.823Z,91.40
